sensor_id;sensor_type;location;lat;lon;timestamp;pressure;altitude;pressure_sealevel;temperature;humidity
20394;BME280;10356;50.544;9.642;2022-12-18T00:00:39;99650.50;;;-11.04;90.38
20394;BME280;10356;50.544;9.642;2022-12-18T00:03:06;99661.44;;;-11.02;90.53
20394;BME280;10356;50.544;9.642;2022-12-18T00:05:34;99660.66;;;-11.01;90.46
20394;BME280;10356;50.544;9.642;2022-12-18T00:08:00;99662.16;;;-11.06;89.88
20394;BME280;10356;50.544;9.642;2022-12-18T00:10:27;99658.84;;;-11.05;90.00
20394;BME280;10356;50.544;9.642;2022-12-18T00:12:54;99664.59;;;-11.09;90.32
20394;BME280;10356;50.544;9.642;2022-12-18T00:15:20;99664.56;;;-11.11;90.10
20394;BME280;10356;50.544;9.642;2022-12-18T00:17:47;99667.13;;;-11.09;90.09
20394;BME280;10356;50.544;9.642;2022-12-18T00:20:13;99667.84;;;-11.13;89.47
20394;BME280;10356;50.544;9.642;2022-12-18T00:22:41;99661.72;;;-11.22;90.06
20394;BME280;10356;50.544;9.642;2022-12-18T00:25:08;99666.00;;;-11.19;89.21
20394;BME280;10356;50.544;9.642;2022-12-18T00:27:34;99666.03;;;-11.18;89.93
20394;BME280;10356;50.544;9.642;2022-12-18T00:30:04;99666.72;;;-11.23;89.10
20394;BME280;10356;50.544;9.642;2022-12-18T00:32:32;99671.78;;;-11.22;89.30
20394;BME280;10356;50.544;9.642;2022-12-18T00:34:58;99670.00;;;-11.24;89.38
20394;BME280;10356;50.544;9.642;2022-12-18T00:37:25;99667.41;;;-11.27;89.21
20394;BME280;10356;50.544;9.642;2022-12-18T00:39:53;99676.63;;;-11.28;89.65
20394;BME280;10356;50.544;9.642;2022-12-18T00:42:19;99672.50;;;-11.26;88.96
20394;BME280;10356;50.544;9.642;2022-12-18T00:45:04;99674.84;;;-11.30;89.03
20394;BME280;10356;50.544;9.642;2022-12-18T00:47:31;99675.75;;;-11.28;89.28
20394;BME280;10356;50.544;9.642;2022-12-18T00:49:57;99667.53;;;-11.23;89.62
20394;BME280;10356;50.544;9.642;2022-12-18T00:52:23;99661.59;;;-11.25;89.80
20394;BME280;10356;50.544;9.642;2022-12-18T00:54:50;99661.72;;;-11.22;89.41
20394;BME280;10356;50.544;9.642;2022-12-18T00:57:18;99671.84;;;-11.19;89.38
20394;BME280;10356;50.544;9.642;2022-12-18T00:59:44;99678.66;;;-11.16;89.67
20394;BME280;10356;50.544;9.642;2022-12-18T01:02:14;99684.38;;;-11.20;89.47
20394;BME280;10356;50.544;9.642;2022-12-18T01:04:40;99687.78;;;-11.20;89.67
20394;BME280;10356;50.544;9.642;2022-12-18T01:07:07;99678.31;;;-11.27;89.70
20394;BME280;10356;50.544;9.642;2022-12-18T01:09:33;99676.22;;;-11.40;89.18
20394;BME280;10356;50.544;9.642;2022-12-18T01:12:00;99673.00;;;-11.36;89.47
20394;BME280;10356;50.544;9.642;2022-12-18T01:14:28;99681.47;;;-11.34;89.67
20394;BME280;10356;50.544;9.642;2022-12-18T01:16:54;99689.91;;;-11.32;89.90
20394;BME280;10356;50.544;9.642;2022-12-18T01:19:21;99698.34;;;-11.30;89.65
20394;BME280;10356;50.544;9.642;2022-12-18T01:21:47;99698.34;;;-11.30;89.12
20394;BME280;10356;50.544;9.642;2022-12-18T01:24:14;99703.19;;;-11.36;89.15
20394;BME280;10356;50.544;9.642;2022-12-18T01:26:40;99708.28;;;-11.33;89.61
20394;BME280;10356;50.544;9.642;2022-12-18T01:29:07;99707.47;;;-11.33;89.55
20394;BME280;10356;50.544;9.642;2022-12-18T01:31:35;99707.34;;;-11.36;88.99
20394;BME280;10356;50.544;9.642;2022-12-18T01:34:02;99709.00;;;-11.37;89.36
20394;BME280;10356;50.544;9.642;2022-12-18T01:36:30;99705.00;;;-11.32;88.92
20394;BME280;10356;50.544;9.642;2022-12-18T01:38:59;99704.25;;;-11.29;89.66
20394;BME280;10356;50.544;9.642;2022-12-18T01:41:28;99694.94;;;-11.32;88.85
20394;BME280;10356;50.544;9.642;2022-12-18T01:47:35;99711.50;;;-11.37;89.38
20394;BME280;10356;50.544;9.642;2022-12-18T01:50:07;99703.88;;;-11.40;89.71
20394;BME280;10356;50.544;9.642;2022-12-18T01:52:35;99708.09;;;-11.39;89.77
20394;BME280;10356;50.544;9.642;2022-12-18T01:55:04;99708.09;;;-11.39;89.95
20394;BME280;10356;50.544;9.642;2022-12-18T01:57:33;99704.63;;;-11.42;89.44
20394;BME280;10356;50.544;9.642;2022-12-18T02:00:04;99702.16;;;-11.41;89.67
20394;BME280;10356;50.544;9.642;2022-12-18T02:02:32;99702.25;;;-11.39;89.48
20394;BME280;10356;50.544;9.642;2022-12-18T02:04:59;99706.28;;;-11.43;88.86
20394;BME280;10356;50.544;9.642;2022-12-18T02:07:31;99695.28;;;-11.46;89.06
20394;BME280;10356;50.544;9.642;2022-12-18T02:10:05;99696.75;;;-11.53;88.91
20394;BME280;10356;50.544;9.642;2022-12-18T02:12:39;99697.56;;;-11.54;88.86
20394;BME280;10356;50.544;9.642;2022-12-18T02:15:13;99693.28;;;-11.56;88.69
20394;BME280;10356;50.544;9.642;2022-12-18T02:17:47;99686.59;;;-11.56;89.08
20394;BME280;10356;50.544;9.642;2022-12-18T02:20:18;99694.44;;;-11.47;88.48
20394;BME280;10356;50.544;9.642;2022-12-18T02:22:57;99699.38;;;-11.50;88.96
20394;BME280;10356;50.544;9.642;2022-12-18T02:25:39;99695.94;;;-11.52;88.68
20394;BME280;10356;50.544;9.642;2022-12-18T02:28:11;99691.88;;;-11.48;88.68
20394;BME280;10356;50.544;9.642;2022-12-18T02:30:40;99685.00;;;-11.54;88.68
20394;BME280;10356;50.544;9.642;2022-12-18T02:33:10;99685.69;;;-11.58;88.52
20394;BME280;10356;50.544;9.642;2022-12-18T02:35:38;99687.34;;;-11.58;88.57
20394;BME280;10356;50.544;9.642;2022-12-18T02:38:06;99694.16;;;-11.56;88.37
20394;BME280;10356;50.544;9.642;2022-12-18T02:40:33;99687.25;;;-11.61;88.47
20394;BME280;10356;50.544;9.642;2022-12-18T02:43:09;99692.16;;;-11.66;88.47
20394;BME280;10356;50.544;9.642;2022-12-18T02:45:35;99700.28;;;-11.73;88.30
20394;BME280;10356;50.544;9.642;2022-12-18T02:48:02;99693.56;;;-11.74;88.20
20394;BME280;10356;50.544;9.642;2022-12-18T02:50:35;99688.03;;;-11.89;88.32
20394;BME280;10356;50.544;9.642;2022-12-18T02:53:11;99689.97;;;-11.82;88.74
20394;BME280;10356;50.544;9.642;2022-12-18T02:55:50;99695.81;;;-11.81;88.18
20394;BME280;10356;50.544;9.642;2022-12-18T02:58:27;99694.84;;;-11.85;87.93
20394;BME280;10356;50.544;9.642;2022-12-18T03:01:00;99701.41;;;-11.90;88.09
20394;BME280;10356;50.544;9.642;2022-12-18T03:03:31;99701.28;;;-11.93;88.57
20394;BME280;10356;50.544;9.642;2022-12-18T03:06:02;99699.47;;;-11.97;87.83
20394;BME280;10356;50.544;9.642;2022-12-18T03:08:34;99703.59;;;-11.99;88.30
20394;BME280;10356;50.544;9.642;2022-12-18T03:11:05;99698.78;;;-11.93;88.32
20394;BME280;10356;50.544;9.642;2022-12-18T03:13:36;99701.94;;;-11.98;88.21
20394;BME280;10356;50.544;9.642;2022-12-18T03:16:06;99703.63;;;-11.97;88.41
20394;BME280;10356;50.544;9.642;2022-12-18T03:18:35;99715.25;;;-12.01;87.64
20394;BME280;10356;50.544;9.642;2022-12-18T03:21:06;99704.28;;;-12.03;88.12
20394;BME280;10356;50.544;9.642;2022-12-18T03:23:36;99699.25;;;-12.03;88.09
20394;BME280;10356;50.544;9.642;2022-12-18T03:26:07;99696.00;;;-12.00;88.33
20394;BME280;10356;50.544;9.642;2022-12-18T03:28:39;99685.97;;;-12.00;88.59
20394;BME280;10356;50.544;9.642;2022-12-18T03:31:10;99692.59;;;-12.02;87.98
20394;BME280;10356;50.544;9.642;2022-12-18T03:33:39;99687.56;;;-12.02;88.62
20394;BME280;10356;50.544;9.642;2022-12-18T03:36:08;99691.72;;;-12.03;88.50
20394;BME280;10356;50.544;9.642;2022-12-18T03:38:35;99692.44;;;-12.07;88.43
20394;BME280;10356;50.544;9.642;2022-12-18T03:41:07;99695.75;;;-12.08;88.55
20394;BME280;10356;50.544;9.642;2022-12-18T03:43:42;99683.78;;;-12.15;87.75
20394;BME280;10356;50.544;9.642;2022-12-18T03:46:15;99690.31;;;-12.20;88.04
20394;BME280;10356;50.544;9.642;2022-12-18T03:48:46;99695.41;;;-12.17;88.20
20394;BME280;10356;50.544;9.642;2022-12-18T03:51:19;99696.94;;;-12.22;88.23
20394;BME280;10356;50.544;9.642;2022-12-18T03:53:51;99690.09;;;-12.26;87.72
20394;BME280;10356;50.544;9.642;2022-12-18T03:56:22;99685.06;;;-12.26;87.55
20394;BME280;10356;50.544;9.642;2022-12-18T03:58:52;99688.16;;;-12.33;87.69
20394;BME280;10356;50.544;9.642;2022-12-18T04:01:22;99695.63;;;-12.35;87.67
20394;BME280;10356;50.544;9.642;2022-12-18T04:03:50;99702.44;;;-12.32;87.31
20394;BME280;10356;50.544;9.642;2022-12-18T04:06:18;99694.91;;;-12.32;87.40
20394;BME280;10356;50.544;9.642;2022-12-18T04:08:45;99686.34;;;-12.37;86.79
20394;BME280;10356;50.544;9.642;2022-12-18T04:11:12;99689.00;;;-12.33;87.58
20394;BME280;10356;50.544;9.642;2022-12-18T04:13:39;99694.91;;;-12.32;87.08
20394;BME280;10356;50.544;9.642;2022-12-18T04:16:07;99697.34;;;-12.34;87.09
20394;BME280;10356;50.544;9.642;2022-12-18T04:18:35;99687.19;;;-12.37;87.18
20394;BME280;10356;50.544;9.642;2022-12-18T04:21:02;99684.53;;;-12.41;86.66
20394;BME280;10356;50.544;9.642;2022-12-18T04:23:29;99678.84;;;-12.36;87.48
20394;BME280;10356;50.544;9.642;2022-12-18T04:25:55;99680.63;;;-12.33;86.92
20394;BME280;10356;50.544;9.642;2022-12-18T04:28:22;99698.03;;;-12.38;87.18
20394;BME280;10356;50.544;9.642;2022-12-18T04:30:48;99694.56;;;-12.41;87.14
20394;BME280;10356;50.544;9.642;2022-12-18T04:33:19;99687.72;;;-12.45;87.91
20394;BME280;10356;50.544;9.642;2022-12-18T04:35:46;99697.06;;;-12.41;87.13
20394;BME280;10356;50.544;9.642;2022-12-18T04:38:13;99697.66;;;-12.48;87.13
20394;BME280;10356;50.544;9.642;2022-12-18T04:40:39;99683.75;;;-12.62;87.89
20394;BME280;10356;50.544;9.642;2022-12-18T04:43:06;99689.06;;;-12.55;87.54
20394;BME280;10356;50.544;9.642;2022-12-18T04:45:32;99679.19;;;-12.50;87.46
20394;BME280;10356;50.544;9.642;2022-12-18T04:48:00;99687.63;;;-12.48;87.33
20394;BME280;10356;50.544;9.642;2022-12-18T04:50:28;99687.63;;;-12.48;87.04
20394;BME280;10356;50.544;9.642;2022-12-18T04:52:55;99681.69;;;-12.50;87.58
20394;BME280;10356;50.544;9.642;2022-12-18T04:55:25;99687.50;;;-12.51;87.12
20394;BME280;10356;50.544;9.642;2022-12-18T04:57:51;99692.28;;;-12.57;86.77
20394;BME280;10356;50.544;9.642;2022-12-18T05:00:18;99700.41;;;-12.64;86.95
20394;BME280;10356;50.544;9.642;2022-12-18T05:02:44;99708.94;;;-12.59;87.11
20394;BME280;10356;50.544;9.642;2022-12-18T05:05:11;99710.59;;;-12.60;86.55
20394;BME280;10356;50.544;9.642;2022-12-18T05:07:39;99705.31;;;-12.67;87.00
20394;BME280;10356;50.544;9.642;2022-12-18T05:10:09;99708.41;;;-12.74;86.48
20394;BME280;10356;50.544;9.642;2022-12-18T05:12:36;99703.47;;;-12.71;86.75
20394;BME280;10356;50.544;9.642;2022-12-18T05:15:23;99695.03;;;-12.73;86.40
20394;BME280;10356;50.544;9.642;2022-12-18T05:17:50;99695.84;;;-12.74;86.43
20394;BME280;10356;50.544;9.642;2022-12-18T05:20:16;99698.47;;;-12.71;86.99
20394;BME280;10356;50.544;9.642;2022-12-18T05:22:44;99704.66;;;-12.62;86.84
20394;BME280;10356;50.544;9.642;2022-12-18T05:25:11;99707.25;;;-12.60;86.68
20394;BME280;10356;50.544;9.642;2022-12-18T05:27:37;99704.75;;;-12.60;86.91
20394;BME280;10356;50.544;9.642;2022-12-18T05:30:05;99706.41;;;-12.61;87.30
20394;BME280;10356;50.544;9.642;2022-12-18T05:32:31;99714.78;;;-12.60;86.62
20394;BME280;10356;50.544;9.642;2022-12-18T05:34:58;99718.94;;;-12.61;87.52
20394;BME280;10356;50.544;9.642;2022-12-18T05:37:24;99719.69;;;-12.63;86.96
20394;BME280;10356;50.544;9.642;2022-12-18T05:39:52;99725.34;;;-12.69;87.34
20394;BME280;10356;50.544;9.642;2022-12-18T05:42:18;99729.31;;;-12.74;87.05
20394;BME280;10356;50.544;9.642;2022-12-18T05:44:45;99732.91;;;-12.67;86.89
20394;BME280;10356;50.544;9.642;2022-12-18T05:47:11;99735.38;;;-12.69;87.09
20394;BME280;10356;50.544;9.642;2022-12-18T05:49:38;99725.38;;;-12.67;87.36
20394;BME280;10356;50.544;9.642;2022-12-18T05:52:04;99725.38;;;-12.67;87.18
20394;BME280;10356;50.544;9.642;2022-12-18T05:54:31;99722.31;;;-12.60;87.21
20394;BME280;10356;50.544;9.642;2022-12-18T05:56:58;99733.94;;;-12.62;86.91
20394;BME280;10356;50.544;9.642;2022-12-18T05:59:25;99732.00;;;-12.69;86.91
20394;BME280;10356;50.544;9.642;2022-12-18T06:01:51;99733.34;;;-12.77;86.33
20394;BME280;10356;50.544;9.642;2022-12-18T06:04:18;99727.56;;;-12.76;86.42
20394;BME280;10356;50.544;9.642;2022-12-18T06:06:44;99728.47;;;-12.74;86.84
20394;BME280;10356;50.544;9.642;2022-12-18T06:09:11;99731.75;;;-12.75;86.68
20394;BME280;10356;50.544;9.642;2022-12-18T06:11:38;99739.06;;;-12.81;86.81
20394;BME280;10356;50.544;9.642;2022-12-18T06:14:06;99734.22;;;-12.77;87.10
20394;BME280;10356;50.544;9.642;2022-12-18T06:16:33;99737.00;;;-12.69;87.53
20394;BME280;10356;50.544;9.642;2022-12-18T06:19:04;99737.00;;;-12.69;86.75
20394;BME280;10356;50.544;9.642;2022-12-18T06:21:31;99741.94;;;-12.72;86.74
20394;BME280;10356;50.544;9.642;2022-12-18T06:23:59;99734.03;;;-12.81;86.65
20394;BME280;10356;50.544;9.642;2022-12-18T06:26:26;99721.50;;;-12.81;86.86
20394;BME280;10356;50.544;9.642;2022-12-18T06:28:52;99716.63;;;-12.78;87.27
20394;BME280;10356;50.544;9.642;2022-12-18T06:31:20;99709.00;;;-12.80;87.17
20394;BME280;10356;50.544;9.642;2022-12-18T06:33:46;99709.78;;;-12.82;87.07
20394;BME280;10356;50.544;9.642;2022-12-18T06:36:15;99705.16;;;-12.93;86.74
20394;BME280;10356;50.544;9.642;2022-12-18T06:38:43;99709.41;;;-12.92;86.88
20394;BME280;10356;50.544;9.642;2022-12-18T06:41:11;99711.97;;;-12.90;86.92
20394;BME280;10356;50.544;9.642;2022-12-18T06:43:37;99718.03;;;-12.85;86.73
20394;BME280;10356;50.544;9.642;2022-12-18T06:46:05;99719.53;;;-12.88;87.17
20394;BME280;10356;50.544;9.642;2022-12-18T06:48:33;99722.88;;;-12.89;86.51
20394;BME280;10356;50.544;9.642;2022-12-18T06:51:00;99726.03;;;-12.94;86.51
20394;BME280;10356;50.544;9.642;2022-12-18T06:53:26;99734.25;;;-12.98;86.80
20394;BME280;10356;50.544;9.642;2022-12-18T06:55:59;99737.53;;;-12.99;86.79
20394;BME280;10356;50.544;9.642;2022-12-18T06:58:26;99744.81;;;-13.06;86.64
20394;BME280;10356;50.544;9.642;2022-12-18T07:00:53;99742.31;;;-13.06;86.61
20394;BME280;10356;50.544;9.642;2022-12-18T07:03:19;99742.13;;;-13.11;85.94
20394;BME280;10356;50.544;9.642;2022-12-18T07:05:47;99739.69;;;-13.09;86.42
20394;BME280;10356;50.544;9.642;2022-12-18T07:08:14;99738.81;;;-13.10;86.17
20394;BME280;10356;50.544;9.642;2022-12-18T07:10:41;99754.50;;;-13.15;86.06
20394;BME280;10356;50.544;9.642;2022-12-18T07:13:08;99741.88;;;-13.17;85.84
20394;BME280;10356;50.544;9.642;2022-12-18T07:15:34;99744.94;;;-13.24;86.32
20394;BME280;10356;50.544;9.642;2022-12-18T07:18:01;99748.44;;;-13.20;86.02
20394;BME280;10356;50.544;9.642;2022-12-18T07:20:28;99752.03;;;-13.14;85.87
20394;BME280;10356;50.544;9.642;2022-12-18T07:22:56;99751.41;;;-13.08;85.83
20394;BME280;10356;50.544;9.642;2022-12-18T07:25:23;99760.47;;;-13.12;85.36
20394;BME280;10356;50.544;9.642;2022-12-18T07:27:49;99762.06;;;-13.14;85.08
20394;BME280;10356;50.544;9.642;2022-12-18T07:30:16;99757.06;;;-13.14;85.29
20394;BME280;10356;50.544;9.642;2022-12-18T07:32:42;99770.69;;;-13.07;85.95
20394;BME280;10356;50.544;9.642;2022-12-18T07:35:09;99768.19;;;-13.07;85.52
20394;BME280;10356;50.544;9.642;2022-12-18T07:37:35;99769.94;;;-13.05;85.15
20394;BME280;10356;50.544;9.642;2022-12-18T07:40:04;99779.50;;;-12.95;85.88
20394;BME280;10356;50.544;9.642;2022-12-18T07:42:31;99776.16;;;-12.95;85.69
20394;BME280;10356;50.544;9.642;2022-12-18T07:44:58;99770.56;;;-12.88;86.29
20394;BME280;10356;50.544;9.642;2022-12-18T07:47:24;99780.34;;;-12.94;86.33
20394;BME280;10356;50.544;9.642;2022-12-18T07:49:51;99783.19;;;-12.86;86.22
20394;BME280;10356;50.544;9.642;2022-12-18T07:52:18;99772.47;;;-12.82;86.34
20394;BME280;10356;50.544;9.642;2022-12-18T07:54:44;99769.97;;;-12.82;85.76
20394;BME280;10356;50.544;9.642;2022-12-18T07:57:18;99774.31;;;-12.78;86.10
20394;BME280;10356;50.544;9.642;2022-12-18T07:59:44;99765.19;;;-12.76;86.35
20394;BME280;10356;50.544;9.642;2022-12-18T08:02:11;99771.03;;;-12.76;86.10
20394;BME280;10356;50.544;9.642;2022-12-18T08:04:37;99773.72;;;-12.71;86.67
20394;BME280;10356;50.544;9.642;2022-12-18T08:07:04;99781.44;;;-12.67;86.36
20394;BME280;10356;50.544;9.642;2022-12-18T08:09:31;99774.25;;;-12.58;86.51
20394;BME280;10356;50.544;9.642;2022-12-18T08:11:57;99772.09;;;-12.49;86.54
20394;BME280;10356;50.544;9.642;2022-12-18T08:14:25;99762.38;;;-12.40;85.67
20394;BME280;10356;50.544;9.642;2022-12-18T08:16:51;99768.38;;;-12.36;85.71
20394;BME280;10356;50.544;9.642;2022-12-18T08:19:18;99753.78;;;-12.24;86.33
20394;BME280;10356;50.544;9.642;2022-12-18T08:21:44;99761.41;;;-12.21;85.54
20394;BME280;10356;50.544;9.642;2022-12-18T08:24:11;99754.94;;;-12.15;86.36
20394;BME280;10356;50.544;9.642;2022-12-18T08:26:37;99751.31;;;-11.99;85.80
20394;BME280;10356;50.544;9.642;2022-12-18T08:29:04;99746.63;;;-11.90;85.89
20394;BME280;10356;50.544;9.642;2022-12-18T08:31:32;99748.44;;;-11.86;86.48
20394;BME280;10356;50.544;9.642;2022-12-18T08:33:59;99742.09;;;-11.75;86.09
20394;BME280;10356;50.544;9.642;2022-12-18T08:36:26;99746.59;;;-11.66;86.23
20394;BME280;10356;50.544;9.642;2022-12-18T08:38:52;99735.06;;;-11.60;86.44
20394;BME280;10356;50.544;9.642;2022-12-18T08:41:19;99732.75;;;-11.54;86.76
20394;BME280;10356;50.544;9.642;2022-12-18T08:43:46;99729.50;;;-11.51;87.69
20394;BME280;10356;50.544;9.642;2022-12-18T08:46:36;99728.00;;;-11.45;87.58
20394;BME280;10356;50.544;9.642;2022-12-18T08:49:04;99728.00;;;-11.45;87.50
20394;BME280;10356;50.544;9.642;2022-12-18T08:51:31;99722.28;;;-11.41;87.62
20394;BME280;10356;50.544;9.642;2022-12-18T08:53:58;99718.16;;;-11.39;87.71
20394;BME280;10356;50.544;9.642;2022-12-18T08:56:24;99715.75;;;-11.36;88.06
20394;BME280;10356;50.544;9.642;2022-12-18T08:58:52;99721.69;;;-11.34;87.96
20394;BME280;10356;50.544;9.642;2022-12-18T09:01:19;99720.16;;;-11.29;88.23
20394;BME280;10356;50.544;9.642;2022-12-18T09:03:47;99716.16;;;-11.24;88.05
20394;BME280;10356;50.544;9.642;2022-12-18T09:06:14;99725.56;;;-11.17;88.38
20394;BME280;10356;50.544;9.642;2022-12-18T09:08:41;99722.53;;;-11.06;88.35
20394;BME280;10356;50.544;9.642;2022-12-18T09:11:12;99721.13;;;-10.98;88.13
20394;BME280;10356;50.544;9.642;2022-12-18T09:13:39;99716.16;;;-10.97;88.49
20394;BME280;10356;50.544;9.642;2022-12-18T09:16:06;99716.09;;;-10.98;88.98
20394;BME280;10356;50.544;9.642;2022-12-18T09:18:32;99702.22;;;-10.86;89.26
20394;BME280;10356;50.544;9.642;2022-12-18T09:21:07;99707.47;;;-10.78;88.99
20394;BME280;10356;50.544;9.642;2022-12-18T09:23:34;99705.03;;;-10.77;89.06
20394;BME280;10356;50.544;9.642;2022-12-18T09:26:00;99691.84;;;-10.68;89.34
20394;BME280;10356;50.544;9.642;2022-12-18T09:28:26;99692.97;;;-10.59;89.18
20394;BME280;10356;50.544;9.642;2022-12-18T09:30:53;99683.91;;;-10.52;88.88
20394;BME280;10356;50.544;9.642;2022-12-18T09:33:20;99678.25;;;-10.45;89.02
20394;BME280;10356;50.544;9.642;2022-12-18T09:35:49;99676.66;;;-10.42;89.00
20394;BME280;10356;50.544;9.642;2022-12-18T09:38:18;99681.09;;;-10.33;88.52
20394;BME280;10356;50.544;9.642;2022-12-18T09:40:47;99684.53;;;-10.31;88.92
20394;BME280;10356;50.544;9.642;2022-12-18T09:43:18;99681.53;;;-10.18;88.88
20394;BME280;10356;50.544;9.642;2022-12-18T09:45:49;99680.94;;;-10.08;88.82
20394;BME280;10356;50.544;9.642;2022-12-18T09:48:20;99673.03;;;-9.89;88.36
20394;BME280;10356;50.544;9.642;2022-12-18T09:50:48;99671.34;;;-9.90;88.01
20394;BME280;10356;50.544;9.642;2022-12-18T09:53:20;99679.22;;;-9.78;88.03
20394;BME280;10356;50.544;9.642;2022-12-18T09:55:48;99672.75;;;-9.67;87.48
20394;BME280;10356;50.544;9.642;2022-12-18T09:58:20;99694.81;;;-9.60;87.13
20394;BME280;10356;50.544;9.642;2022-12-18T10:00:51;99709.13;;;-9.59;87.03
20394;BME280;10356;50.544;9.642;2022-12-18T10:03:18;99710.09;;;-9.54;86.98
20394;BME280;10356;50.544;9.642;2022-12-18T10:05:54;99705.22;;;-9.48;86.52
20394;BME280;10356;50.544;9.642;2022-12-18T10:08:32;99691.28;;;-9.32;86.59
20394;BME280;10356;50.544;9.642;2022-12-18T10:11:03;99696.19;;;-9.38;86.15
20394;BME280;10356;50.544;9.642;2022-12-18T10:13:41;99700.47;;;-9.35;86.72
20394;BME280;10356;50.544;9.642;2022-12-18T10:16:15;99700.81;;;-9.20;86.63
20394;BME280;10356;50.544;9.642;2022-12-18T10:19:04;99690.13;;;-9.10;86.34
20394;BME280;10356;50.544;9.642;2022-12-18T10:21:40;99687.09;;;-8.96;86.38
20394;BME280;10356;50.544;9.642;2022-12-18T10:24:16;99689.84;;;-8.87;86.41
20394;BME280;10356;50.544;9.642;2022-12-18T10:26:46;99687.53;;;-8.76;85.86
20394;BME280;10356;50.544;9.642;2022-12-18T10:29:15;99675.91;;;-8.68;85.65
20394;BME280;10356;50.544;9.642;2022-12-18T10:31:42;99674.31;;;-8.65;85.89
20394;BME280;10356;50.544;9.642;2022-12-18T10:34:17;99675.34;;;-8.56;85.96
20394;BME280;10356;50.544;9.642;2022-12-18T10:36:44;99677.25;;;-8.45;85.67
20394;BME280;10356;50.544;9.642;2022-12-18T10:39:16;99679.03;;;-8.41;85.54
20394;BME280;10356;50.544;9.642;2022-12-18T10:41:43;99667.97;;;-8.46;85.97
20394;BME280;10356;50.544;9.642;2022-12-18T10:44:12;99675.75;;;-8.37;85.70
20394;BME280;10356;50.544;9.642;2022-12-18T10:46:39;99669.16;;;-8.29;85.64
20394;BME280;10356;50.544;9.642;2022-12-18T10:49:18;99669.16;;;-8.29;85.40
20394;BME280;10356;50.544;9.642;2022-12-18T10:51:45;99656.59;;;-8.23;86.02
20394;BME280;10356;50.544;9.642;2022-12-18T10:54:16;99652.56;;;-8.15;86.06
20394;BME280;10356;50.544;9.642;2022-12-18T10:56:43;99645.19;;;-8.03;85.89
20394;BME280;10356;50.544;9.642;2022-12-18T10:59:13;99636.75;;;-8.03;86.18
20394;BME280;10356;50.544;9.642;2022-12-18T11:01:49;99638.59;;;-7.96;86.29
20394;BME280;10356;50.544;9.642;2022-12-18T11:04:20;99639.69;;;-7.82;85.85
20394;BME280;10356;50.544;9.642;2022-12-18T11:06:56;99635.41;;;-7.85;85.91
20394;BME280;10356;50.544;9.642;2022-12-18T11:09:26;99638.16;;;-7.73;86.09
20394;BME280;10356;50.544;9.642;2022-12-18T11:11:54;99638.22;;;-7.69;85.23
20394;BME280;10356;50.544;9.642;2022-12-18T11:14:23;99630.94;;;-7.51;85.31
20394;BME280;10356;50.544;9.642;2022-12-18T11:16:52;99640.31;;;-7.44;84.67
20394;BME280;10356;50.544;9.642;2022-12-18T11:19:24;99643.81;;;-7.36;84.78
20394;BME280;10356;50.544;9.642;2022-12-18T11:21:55;99648.19;;;-7.25;85.31
20394;BME280;10356;50.544;9.642;2022-12-18T11:24:27;99639.09;;;-7.15;85.36
20394;BME280;10356;50.544;9.642;2022-12-18T11:26:55;99618.94;;;-7.08;85.06
20394;BME280;10356;50.544;9.642;2022-12-18T11:29:24;99610.66;;;-6.96;84.81
20394;BME280;10356;50.544;9.642;2022-12-18T11:32:20;99609.75;;;-7.00;85.32
20394;BME280;10356;50.544;9.642;2022-12-18T11:34:52;99605.72;;;-6.87;85.21
20394;BME280;10356;50.544;9.642;2022-12-18T11:37:22;99594.16;;;-6.67;85.31
20394;BME280;10356;50.544;9.642;2022-12-18T11:39:54;99585.84;;;-6.52;84.44
20394;BME280;10356;50.544;9.642;2022-12-18T11:42:25;99582.72;;;-6.32;84.44
20394;BME280;10356;50.544;9.642;2022-12-18T11:44:57;99587.78;;;-6.32;83.58
20394;BME280;10356;50.544;9.642;2022-12-18T11:47:27;99587.16;;;-6.13;84.01
20394;BME280;10356;50.544;9.642;2022-12-18T11:49:56;99579.78;;;-5.88;83.56
20394;BME280;10356;50.544;9.642;2022-12-18T11:52:28;99575.53;;;-5.91;82.62
20394;BME280;10356;50.544;9.642;2022-12-18T11:55:04;99577.19;;;-5.93;82.65
20394;BME280;10356;50.544;9.642;2022-12-18T11:57:37;99579.78;;;-5.85;83.00
20394;BME280;10356;50.544;9.642;2022-12-18T12:00:12;99585.84;;;-5.65;82.87
20394;BME280;10356;50.544;9.642;2022-12-18T12:02:54;99579.97;;;-5.64;82.16
20394;BME280;10356;50.544;9.642;2022-12-18T12:05:31;99585.16;;;-5.46;82.31
20394;BME280;10356;50.544;9.642;2022-12-18T12:08:09;99580.91;;;-5.50;81.92
20394;BME280;10356;50.544;9.642;2022-12-18T12:10:48;99578.31;;;-5.58;81.95
20394;BME280;10356;50.544;9.642;2022-12-18T12:13:29;99572.38;;;-5.58;82.68
20394;BME280;10356;50.544;9.642;2022-12-18T12:16:09;99554.78;;;-5.31;82.06
20394;BME280;10356;50.544;9.642;2022-12-18T12:18:52;99553.16;;;-5.23;82.12
20394;BME280;10356;50.544;9.642;2022-12-18T12:21:26;99549.84;;;-5.10;81.46
20394;BME280;10356;50.544;9.642;2022-12-18T12:24:00;99551.50;;;-5.18;81.14
20394;BME280;10356;50.544;9.642;2022-12-18T12:26:34;99532.06;;;-5.12;82.57
20394;BME280;10356;50.544;9.642;2022-12-18T12:29:18;99540.53;;;-5.11;82.52
20394;BME280;10356;50.544;9.642;2022-12-18T12:32:04;99546.38;;;-5.21;82.39
20394;BME280;10356;50.544;9.642;2022-12-18T12:34:38;99544.75;;;-5.16;82.45
20394;BME280;10356;50.544;9.642;2022-12-18T12:37:19;99538.00;;;-5.11;82.32
20394;BME280;10356;50.544;9.642;2022-12-18T12:39:47;99541.38;;;-5.14;81.56
20394;BME280;10356;50.544;9.642;2022-12-18T12:42:20;99537.94;;;-5.19;81.76
20394;BME280;10356;50.544;9.642;2022-12-18T12:45:14;99521.06;;;-5.12;81.71
20394;BME280;10356;50.544;9.642;2022-12-18T12:47:43;99517.72;;;-5.05;81.06
20394;BME280;10356;50.544;9.642;2022-12-18T12:50:16;99504.16;;;-5.04;81.23
20394;BME280;10356;50.544;9.642;2022-12-18T12:52:45;99497.41;;;-4.97;81.66
20394;BME280;10356;50.544;9.642;2022-12-18T12:55:16;99496.56;;;-4.98;81.86
20394;BME280;10356;50.544;9.642;2022-12-18T12:57:51;99499.97;;;-4.99;82.56
20394;BME280;10356;50.544;9.642;2022-12-18T13:00:20;99497.44;;;-4.93;82.75
20394;BME280;10356;50.544;9.642;2022-12-18T13:02:54;99499.16;;;-4.84;82.45
20394;BME280;10356;50.544;9.642;2022-12-18T13:05:26;99497.50;;;-4.81;81.97
20394;BME280;10356;50.544;9.642;2022-12-18T13:07:57;99505.94;;;-4.83;81.53